Bloomfield, NM (87413)

7:06 AM MDT on September 22, 2014 (GMT -0600)
Aztec, NM 87410 | Change Station
CLOSE
Current Station
Personal Weather Station
Location: Aztec, NM
Elevation: 5682 ft
Nearby Weather Stations

Elev 5682 ft 36.82 °N, 107.99 °W | Updated 7 minutes ago

Overcast
Overcast
55.4 °F
Feels Like 55.4 °F
N
0.0
Wind Variable Wind from NNE

Today
High -- | Low -- °F
--% Chance of Precip.
Yesterday
High -- | Low -- °F
Precip. -- in
6:59 AM 7:08 PM
Waning Crescent, 3% visible
Pressure 30.11 in
Visibility 10.0 miles
Clouds Mostly Cloudy 10000 ft
Overcast 12000 ft
Dew Point 53 °F
Humidity 92%
Rainfall 0.05 in
Snow Depth 0 in , 0 in , 0 in
UV 0 out of 12
Pollen 4.30 out of 12
Air Quality Not available.
Flu Activity Not available.
METAR KFMN 221253Z 09008KT 10SM BKN100 OVC120 17/14 A3025 RMK AO2 RAB01E23 SLP194 P0000 T01670144

More Conditions Fewer Conditions

Pressure 30.11 in
Visibility 10.0 miles
Clouds Mostly Cloudy 10000 ft
Overcast 12000 ft
Dew Point 53 °F
Humidity 92%
Rainfall 0.05 in
Snow Depth 0 in , 0 in , 0 in
UV 0 out of 12
Pollen 4.30 out of 12
Air Quality Not available.
Flu Activity Not available.
METAR KFMN 221253Z 09008KT 10SM BKN100 OVC120 17/14 A3025 RMK AO2 RAB01E23 SLP194 P0000 T01670144

More Conditions Fewer Conditions

Nowcast | as of 5:20 am MDT on September 22, 2014

Scattered showers...a few with thunder...will continue through the early morning hours and likely beyond...most drifting to the northeast. The greatest concentration should remain in and near Catron County through 730 am MDT. Expect occasional lightning and rainfall up to three or four tenths of an inch along with locally poor visibility in heavier showers and...more locally...fog. Some localities potentially affected include dusty...Beaverhead... Reserve...Glenwood...Red Hill...Quemado...Gallup...Narbona Pass... Aztec and the southeast side of the Albuquerque Metro area. Elsewhere...expect much more isolated showers of up to two tenths of an inch and a few fog patches.

×

10-Day Weather Forecast

Almanac

Astronomy

Sep. 22, 2014 Rise Set
Actual Time 6:59 AM MDT 7:08 PM MDT
Civil Twilight 6:33 AM MDT 7:34 PM MDT
Nautical Twilight 6:03 AM MDT 8:04 PM MDT
Astronomical Twilight 5:33 AM MDT 8:35 PM MDT
Moon 5:32 AM MDT 6:17 PM MDT
Length of Visible Light 13h 00m
Length of Day
12h 08m
Tomorrow will be 2m 19s shorter.
Waning Crescent, 3% of the Moon is Illuminated
Today
Waning Crescent
Sep 24
New
Oct 1
First Quarter
Oct 8
Full
Oct 15
Last Quarter

Today's Extremes

State Highs State Lows

Community

WunderPhotos

Upload Photos

1,755,419 photos uploaded!

Nearby

Snow Depth

Station Depth Elevation
Gallegos Peak 0 in 9800 ft
Rice Park 0 in 8460 ft
Hopewell 0 in 10000 ft
Frisco Divide 0 in 8000 ft
Wesner Springs 2 in 11120 ft

Earthquake Activity

City Distance Mag. Time & Date
No recent earthquake activity has been reported nearby.
Minimum magnitude displayed is 2.5.

Coastal Water Temperatures

Place Temperature
No Stations Reporting

Nearby Weather Stations